Terminal Aerodrome Forecast
Issued by NWS New Orleans/Baton Rouge, LA

Current Version | Previous Version | Text Only | Print | Product List | Glossary On
Versions: 1 2 3 4 5 6 7 8 9 10 11 12 13 14 15 16 17 18 19 20 21 22 23 24 25 26 27 28 29 30 31 32 33 34 35 36 37 38 39
000
FTUS44 KLIX 271120
TAFNEW
TAF
KNEW 271120Z 2712/2812 32020KT P6SM BKN015 OVC020
     FM271300 35017KT P6SM SKC
     FM271800 35011KT P6SM SKC
     FM280100 33016G22KT P6SM SKC=

USA.gov is the U.S. government's official web portal to all federal, state and local government web resources and services.